Time;durP1;ratioP1;P1;durP2;ratioP2;P2;SDS_P1;SDS_P2;PMS_P1;PMS_P2;Temp;Humidity;BMP_temperature;BMP_pressure;BME280_temperature;BME280_humidity;BME280_pressure;Samples;Min_cycle;Max_cycle;Signal;HPM_P1;HPM_P2
2022/08/31 00:06:07;;;;;;;0.83;0.83;;;;;;;15.95;62.87;102428.19;6213149;28;20225;-72
2022/08/31 00:09:29;;;;;;;0.70;0.70;;;;;;;15.95;63.34;102420.03;6217166;28;20601;-72
2022/08/31 00:12:51;;;;;;;2.17;0.80;;;;;;;15.90;63.85;102420.41;6203416;28;20233;-72
2022/08/31 00:16:12;;;;;;;1.30;0.90;;;;;;;15.77;63.91;102430.63;6211688;28;20619;-72
2022/08/31 00:19:33;;;;;;;1.20;0.60;;;;;;;15.85;63.41;102419.09;6236875;28;20323;-71
2022/08/31 00:22:55;;;;;;;1.33;0.97;;;;;;;15.90;63.03;102411.38;6220274;28;20230;-71
2022/08/31 00:26:17;;;;;;;0.60;0.60;;;;;;;15.79;63.78;102419.63;6206345;28;20459;-72
2022/08/31 00:29:38;;;;;;;0.80;0.63;;;;;;;15.52;64.69;102411.94;6213453;28;20504;-72
2022/08/31 00:32:59;;;;;;;3.23;1.13;;;;;;;15.54;64.46;102409.97;6210893;28;20234;-73
2022/08/31 00:36:22;;;;;;;2.43;0.87;;;;;;;15.55;64.18;102410.84;6208981;28;20582;-72
2022/08/31 00:39:44;;;;;;;0.57;0.50;;;;;;;15.58;64.45;102418.75;6219796;28;20530;-72
2022/08/31 00:43:05;;;;;;;0.40;0.40;;;;;;;15.56;64.78;102415.28;6209420;28;20525;-72
2022/08/31 00:46:28;;;;;;;1.20;0.80;;;;;;;15.53;65.08;102408.25;6207453;28;20279;-72
2022/08/31 00:49:50;;;;;;;0.50;0.50;;;;;;;15.41;64.96;102403.84;6211125;28;20245;-72
2022/08/31 00:53:11;;;;;;;0.40;0.40;;;;;;;15.48;65.28;102412.38;6205824;28;20320;-72
2022/08/31 00:56:35;;;;;;;0.67;0.43;;;;;;;15.45;65.20;102412.63;6211525;28;20230;-71
2022/08/31 00:59:57;;;;;;;1.13;0.70;;;;;;;15.32;65.04;102412.75;6210268;28;20544;-72
2022/08/31 01:03:20;;;;;;;0.77;0.40;;;;;;;15.30;65.24;102413.88;6211614;28;20237;-71
2022/08/31 01:06:41;;;;;;;0.73;0.73;;;;;;;15.17;65.98;102419.47;6214748;28;20799;-71
2022/08/31 01:10:04;;;;;;;0.47;0.47;;;;;;;15.12;66.37;102405.44;6208934;28;20233;-71
2022/08/31 01:13:26;;;;;;;0.60;0.60;;;;;;;15.16;66.44;102406.88;6183765;28;20504;-71
2022/08/31 01:16:52;;;;;;;0.40;0.40;;;;;;;15.17;66.25;102420.34;6206751;28;20221;-72
2022/08/31 01:20:20;;;;;;;1.93;1.30;;;;;;;15.16;66.85;102415.88;6209248;28;20305;-71
2022/08/31 01:23:45;;;;;;;0.70;0.50;;;;;;;15.18;65.86;102418.50;6206712;28;20316;-72
2022/08/31 01:27:06;;;;;;;0.50;0.50;;;;;;;15.15;66.37;102422.31;6217005;28;20233;-71
2022/08/31 01:30:27;;;;;;;0.60;0.60;;;;;;;15.21;66.66;102424.53;6228953;28;20362;-71
2022/08/31 01:33:49;;;;;;;1.20;0.70;;;;;;;15.23;66.39;102424.38;6234282;28;20228;-72
2022/08/31 01:37:11;;;;;;;0.77;0.50;;;;;;;15.25;66.67;102424.28;6234636;28;20236;-71
2022/08/31 01:40:37;;;;;;;0.57;0.40;;;;;;;15.23;66.15;102429.81;6238677;28;20484;-71
2022/08/31 01:43:59;;;;;;;0.23;0.23;;;;;;;15.06;66.92;102430.38;6233160;28;20232;-71
2022/08/31 01:47:20;;;;;;;0.57;0.30;;;;;;;15.08;66.62;102429.25;6205490;28;20235;-71
2022/08/31 01:50:41;;;;;;;0.40;0.40;;;;;;;15.14;66.67;102422.47;6216534;28;20232;-71
2022/08/31 01:54:03;;;;;;;0.60;0.60;;;;;;;15.04;67.02;102425.06;6208120;28;20599;-71
2022/08/31 01:57:25;;;;;;;0.50;0.50;;;;;;;15.04;67.27;102429.66;6206063;28;21100;-70
2022/08/31 02:00:59;;;;;;;0.53;0.53;;;;;;;15.01;67.29;102432.59;6201981;28;20233;-71
2022/08/31 02:04:23;;;;;;;0.53;0.30;;;;;;;15.08;67.13;102437.38;6233156;28;20229;-71
2022/08/31 02:07:48;;;;;;;0.50;0.40;;;;;;;15.10;66.51;102442.72;6230611;28;20232;-71
2022/08/31 02:11:09;;;;;;;1.37;0.80;;;;;;;15.05;66.76;102443.09;6231246;28;20236;-71
2022/08/31 02:14:31;;;;;;;0.87;0.60;;;;;;;15.00;67.07;102434.44;6230336;28;20216;-71
2022/08/31 02:17:52;;;;;;;0.30;0.30;;;;;;;14.93;67.81;102440.53;6233870;28;20263;-71
2022/08/31 02:21:13;;;;;;;0.83;0.57;;;;;;;14.89;68.25;102433.63;6232684;28;20602;-71
2022/08/31 02:24:35;;;;;;;0.30;0.30;;;;;;;14.92;67.35;102436.94;6210181;28;20591;-71
2022/08/31 02:27:56;;;;;;;1.80;1.00;;;;;;;14.67;68.21;102439.06;6220285;28;20216;-71
2022/08/31 02:31:18;;;;;;;0.63;0.63;;;;;;;14.68;68.78;102435.38;6224953;28;20232;-71
2022/08/31 02:34:50;;;;;;;0.40;0.40;;;;;;;14.81;68.53;102433.41;6206760;28;20240;-71
2022/08/31 02:38:11;;;;;;;0.50;0.50;;;;;;;14.75;68.58;102436.59;6234694;28;20236;-71
2022/08/31 02:41:32;;;;;;;0.87;0.63;;;;;;;14.79;68.36;102430.78;6231405;28;20405;-71
2022/08/31 02:44:53;;;;;;;0.40;0.23;;;;;;;14.84;68.46;102423.13;6225639;28;20341;-71
2022/08/31 02:48:15;;;;;;;0.80;0.63;;;;;;;14.84;68.58;102427.69;6228581;28;20683;-72
2022/08/31 02:51:39;;;;;;;0.73;0.70;;;;;;;14.81;68.60;102425.25;6232533;28;20644;-71
2022/08/31 02:55:00;;;;;;;0.90;0.80;;;;;;;14.73;68.92;102430.41;6231411;28;20229;-71
2022/08/31 02:58:23;;;;;;;0.80;0.80;;;;;;;14.62;69.15;102425.88;6238016;28;20228;-71
2022/08/31 03:01:44;;;;;;;0.73;0.73;;;;;;;14.62;68.84;102425.88;6241066;28;20232;-72
2022/08/31 03:05:09;;;;;;;0.77;0.67;;;;;;;14.60;69.30;102418.84;6207883;28;21082;-72
2022/08/31 03:08:31;;;;;;;0.33;0.33;;;;;;;14.72;69.42;102415.13;6205240;28;20233;-72
2022/08/31 03:11:53;;;;;;;1.90;0.70;;;;;;;14.61;69.43;102420.56;6211650;28;20229;-72
2022/08/31 03:15:16;;;;;;;1.70;0.90;;;;;;;14.61;68.89;102420.56;6218335;28;20233;-72
2022/08/31 03:18:39;;;;;;;2.87;1.60;;;;;;;14.46;69.51;102414.50;6211104;28;20237;-71
2022/08/31 03:22:04;;;;;;;0.70;0.70;;;;;;;14.38;70.17;102416.97;6210670;28;20230;-72
2022/08/31 03:25:26;;;;;;;0.77;0.70;;;;;;;14.47;69.74;102415.38;6210152;28;20233;-72
2022/08/31 03:28:48;;;;;;;0.40;0.40;;;;;;;14.53;70.09;102417.59;6214455;28;20229;-72
2022/08/31 03:32:27;;;;;;;0.53;0.40;;;;;;;14.59;69.25;102412.53;6209775;28;20229;-72
2022/08/31 03:35:49;;;;;;;0.50;0.50;;;;;;;14.35;70.71;102411.81;6210585;28;20257;-71
2022/08/31 03:39:12;;;;;;;0.40;0.40;;;;;;;14.55;70.07;102411.06;6211266;28;20552;-72
2022/08/31 03:42:34;;;;;;;0.63;0.33;;;;;;;14.69;69.80;102420.78;6211858;28;20229;-72
2022/08/31 03:45:56;;;;;;;1.03;0.60;;;;;;;14.68;69.61;102421.78;6210889;28;20233;-71
2022/08/31 03:49:18;;;;;;;3.83;2.80;;;;;;;14.74;69.55;102424.00;6207754;28;20525;-72
2022/08/31 03:52:55;;;;;;;5.13;2.90;;;;;;;14.76;69.59;102425.63;6226055;28;20291;-71
2022/08/31 03:56:17;;;;;;;1.53;1.00;;;;;;;14.77;69.11;102424.59;6237902;28;20232;-71
2022/08/31 03:59:38;;;;;;;5.80;5.30;;;;;;;14.70;69.67;102434.25;6212922;28;20229;-71
2022/08/31 04:03:12;;;;;;;4.07;3.33;;;;;;;14.55;69.57;102427.34;6213746;28;20560;-71
2022/08/31 04:07:11;;;;;;;7.70;6.13;;;;;;;14.49;69.98;102429.69;6212223;28;20539;-72
2022/08/31 04:10:53;;;;;;;11.77;8.40;;;;;;;14.51;70.11;102433.16;6208411;28;20245;-71
2022/08/31 04:14:54;;;;;;;3.73;3.30;;;;;;;14.46;70.60;102430.78;6217142;28;20247;-71
2022/08/31 04:18:34;;;;;;;6.27;2.90;;;;;;;14.51;69.95;102435.84;6233810;28;20225;-71
2022/08/31 04:21:56;;;;;;;5.30;1.80;;;;;;;14.55;70.13;102432.78;6225761;28;20289;-72
2022/08/31 04:25:17;;;;;;;1.93;1.80;;;;;;;14.57;69.55;102432.66;6229114;28;20225;-71
2022/08/31 04:28:38;;;;;;;1.60;1.27;;;;;;;14.52;69.74;102438.44;6236276;28;20232;-72
2022/08/31 04:32:00;;;;;;;1.43;1.00;;;;;;;14.50;70.34;102437.69;6230803;28;20312;-72
2022/08/31 04:35:21;;;;;;;3.50;1.77;;;;;;;14.38;70.54;102447.69;6233383;28;20237;-72
2022/08/31 04:38:44;;;;;;;0.90;0.90;;;;;;;14.50;70.32;102450.44;6228566;28;20629;-71
2022/08/31 04:42:05;;;;;;;2.10;1.40;;;;;;;14.51;70.22;102449.44;6234176;28;20225;-71
2022/08/31 04:45:28;;;;;;;1.10;1.00;;;;;;;14.53;69.95;102450.16;6234910;28;20248;-72
2022/08/31 04:48:51;;;;;;;0.90;0.90;;;;;;;14.53;70.43;102451.03;6233461;28;20224;-71
2022/08/31 04:52:11;;;;;;;0.83;0.60;;;;;;;14.63;69.63;102451.16;6244627;28;20241;-71
2022/08/31 04:55:33;;;;;;;0.73;0.70;;;;;;;14.64;69.95;102450.19;6233563;28;20228;-71
2022/08/31 04:58:56;;;;;;;0.70;0.70;;;;;;;14.64;69.84;102450.19;6233378;28;20233;-71
2022/08/31 05:02:19;;;;;;;0.77;0.60;;;;;;;14.64;69.92;102450.19;6233123;28;20232;-72
2022/08/31 05:05:58;;;;;;;1.27;0.80;;;;;;;14.53;70.00;102442.03;6228976;28;20315;-71
2022/08/31 05:09:22;;;;;;;3.90;1.97;;;;;;;14.59;69.63;102446.97;6220590;28;20241;-72
2022/08/31 05:12:44;;;;;;;1.20;1.10;;;;;;;14.62;70.07;102444.88;6201418;28;20238;-71
2022/08/31 05:16:08;;;;;;;7.30;6.00;;;;;;;14.71;69.74;102444.13;6227133;28;20233;-72
2022/08/31 05:19:30;;;;;;;3.73;3.13;;;;;;;14.85;69.06;102448.44;6202086;28;20225;-72
2022/08/31 05:22:54;;;;;;;3.77;2.93;;;;;;;14.85;69.11;102445.72;6202789;28;20462;-72
2022/08/31 05:26:18;;;;;;;2.43;1.90;;;;;;;14.88;69.65;102445.47;6212076;28;20241;-71
2022/08/31 05:29:39;;;;;;;2.23;1.70;;;;;;;14.94;69.37;102453.97;6237869;28;20225;-71
2022/08/31 05:33:18;;;;;;;2.20;1.13;;;;;;;15.12;68.75;102452.44;6235708;28;20253;-71
2022/08/31 05:36:40;;;;;;;1.07;0.90;;;;;;;15.13;68.42;102456.91;6232310;28;20232;-72
2022/08/31 05:40:04;;;;;;;1.27;0.80;;;;;;;15.24;68.88;102458.72;6234149;28;20732;-71
2022/08/31 05:43:25;;;;;;;1.57;0.63;;;;;;;15.33;67.97;102463.41;6229767;28;20323;-71
2022/08/31 05:46:47;;;;;;;4.90;1.17;;;;;;;15.39;67.90;102459.31;6236006;28;20822;-71
2022/08/31 05:50:09;;;;;;;0.83;0.57;;;;;;;15.36;67.47;102463.13;6205247;28;20491;-72
2022/08/31 05:53:33;;;;;;;2.47;0.70;;;;;;;15.44;67.71;102462.50;6241317;28;20228;-73
2022/08/31 05:56:56;;;;;;;1.60;1.00;;;;;;;15.49;67.46;102465.72;6212275;28;20229;-71
2022/08/31 06:00:17;;;;;;;1.07;0.70;;;;;;;15.63;67.66;102479.00;6210805;28;20706;-71
2022/08/31 06:03:44;;;;;;;0.87;0.83;;;;;;;15.80;66.76;102476.59;6205327;28;20518;-71
2022/08/31 06:07:05;;;;;;;4.60;3.20;;;;;;;15.85;66.47;102473.50;6209155;28;20229;-70
2022/08/31 06:10:36;;;;;;;1.60;0.60;;;;;;;15.94;66.30;102484.44;6217323;28;20672;-72
2022/08/31 06:14:00;;;;;;;0.83;0.70;;;;;;;16.10;65.84;102485.84;6200382;28;20237;-72
2022/08/31 06:17:22;;;;;;;0.77;0.77;;;;;;;16.16;65.68;102490.75;6235237;28;20264;-72
2022/08/31 06:20:43;;;;;;;1.03;0.93;;;;;;;16.29;65.58;102478.66;6220407;28;20569;-72
2022/08/31 06:24:06;;;;;;;1.40;0.50;;;;;;;16.38;64.43;102477.00;6234007;28;20236;-72
2022/08/31 06:27:29;;;;;;;1.60;0.93;;;;;;;16.49;63.70;102477.81;6233097;28;20232;-72
2022/08/31 06:30:52;;;;;;;1.13;0.80;;;;;;;16.64;63.40;102481.06;6233304;28;20236;-72
2022/08/31 06:34:15;;;;;;;1.60;0.90;;;;;;;16.69;63.46;102484.22;6203191;28;20241;-71
2022/08/31 06:37:55;;;;;;;0.87;0.80;;;;;;;16.82;62.66;102487.56;6205443;28;20578;-72
2022/08/31 06:41:36;;;;;;;1.30;0.70;;;;;;;16.90;62.51;102493.19;6208846;28;20511;-73
2022/08/31 06:45:20;;;;;;;0.40;0.40;;;;;;;17.02;61.79;102486.63;6223374;28;20736;-72
2022/08/31 06:48:52;;;;;;;0.80;0.60;;;;;;;17.12;62.22;102494.84;6213145;28;20232;-72
2022/08/31 06:52:14;;;;;;;0.60;0.60;;;;;;;17.25;62.07;102492.75;6208159;28;20279;-72
2022/08/31 06:55:37;;;;;;;0.87;0.50;;;;;;;17.35;61.14;102489.03;6211222;28;20544;-72
2022/08/31 06:59:17;;;;;;;0.60;0.60;;;;;;;17.47;61.01;102487.91;6212813;28;20228;-72
2022/08/31 07:02:47;;;;;;;0.40;0.30;;;;;;;17.52;59.93;102487.53;6218539;28;20236;-72
2022/08/31 07:06:12;;;;;;;2.65;1.15;;;;;;;17.56;59.20;102491.69;6239160;28;20263;-71
2022/08/31 07:09:33;;;;;;;1.52;0.30;;;;;;;17.62;59.18;102485.66;6207722;28;20228;-72
2022/08/31 07:12:54;;;;;;;0.40;0.40;;;;;;;17.74;58.69;102483.63;6217760;28;20229;-72
2022/08/31 07:16:19;;;;;;;0.50;0.50;;;;;;;17.80;57.92;102477.59;6215676;28;20233;-72
2022/08/31 07:19:40;;;;;;;0.40;0.40;;;;;;;17.94;56.99;102483.50;6202806;28;20233;-73
2022/08/31 07:23:02;;;;;;;0.55;0.50;;;;;;;17.96;56.51;102484.22;6233496;28;20233;-72
2022/08/31 07:26:33;;;;;;;0.47;0.47;;;;;;;18.04;56.05;102492.56;6214355;28;20229;-72
2022/08/31 07:29:54;;;;;;;0.50;0.50;;;;;;;18.29;55.54;102489.19;6233486;28;20240;-71
2022/08/31 07:33:17;;;;;;;0.70;0.40;;;;;;;18.47;55.27;102493.94;6234428;28;20509;-71
2022/08/31 07:44:09;;;;;;;0.60;0.60;;;;;;;18.66;55.12;102478.34;6209290;28;20238;-71
2022/08/31 07:47:32;;;;;;;0.95;0.90;;;;;;;18.82;54.30;102478.56;6247965;28;20224;-71
2022/08/31 07:50:55;;;;;;;0.98;0.52;;;;;;;18.99;54.20;102488.72;6204661;28;20479;-72
2022/08/31 07:54:36;;;;;;;0.50;0.50;;;;;;;19.22;53.90;102486.41;6195840;28;20347;-71
2022/08/31 07:58:16;;;;;;;0.30;0.30;;;;;;;19.36;52.99;102487.84;6209175;28;20257;-72
2022/08/31 08:01:42;;;;;;;0.60;0.38;;;;;;;19.28;52.63;102493.16;6212173;28;20597;-72
2022/08/31 08:05:06;;;;;;;1.70;0.85;;;;;;;19.31;52.86;102492.84;6204272;28;21351;-71
2022/08/31 08:08:53;;;;;;;2.67;0.80;;;;;;;19.52;52.46;102498.94;6223205;28;20245;-72
2022/08/31 08:12:37;;;;;;;0.43;0.40;;;;;;;19.60;51.37;102499.88;6228551;28;20256;-72
2022/08/31 08:16:07;;;;;;;0.30;0.25;;;;;;;19.66;51.40;102507.47;6209156;28;20630;-71
2022/08/31 08:19:44;;;;;;;1.63;0.77;;;;;;;19.81;51.24;102505.06;6205598;28;20436;-72
2022/08/31 08:23:07;;;;;;;0.88;0.63;;;;;;;20.00;50.19;102510.38;6209165;28;20253;-72
2022/08/31 08:26:58;;;;;;;0.52;0.50;;;;;;;20.14;49.81;102509.81;6173321;28;20240;-72
2022/08/31 08:30:45;;;;;;;0.77;0.77;;;;;;;19.94;49.81;102506.38;6232125;28;20255;-71
2022/08/31 08:34:10;;;;;;;0.52;0.52;;;;;;;19.98;50.28;102509.69;6236867;28;20247;-71
2022/08/31 08:37:32;;;;;;;0.30;0.30;;;;;;;20.02;50.61;102510.22;6250282;28;20228;-71
2022/08/31 08:40:53;;;;;;;0.20;0.20;;;;;;;20.17;50.27;102512.22;6211721;28;20552;-72
2022/08/31 08:44:16;;;;;;;0.35;0.20;;;;;;;20.26;49.48;102503.09;6232321;28;20232;-71
2022/08/31 08:47:39;;;;;;;1.55;0.70;;;;;;;20.49;49.48;102504.28;6233419;28;20424;-71
2022/08/31 08:51:08;;;;;;;0.60;0.30;;;;;;;20.48;48.83;102498.97;6236495;28;20228;-71
2022/08/31 08:54:42;;;;;;;1.80;0.88;;;;;;;20.78;47.95;102503.94;6249669;28;20515;-72
2022/08/31 08:58:06;;;;;;;2.05;0.60;;;;;;;20.76;46.82;102508.72;6209630;28;20363;-72
2022/08/31 09:01:30;;;;;;;1.17;0.30;;;;;;;20.73;46.31;102501.69;6205564;28;20237;-73
2022/08/31 09:05:29;;;;;;;1.55;0.50;;;;;;;20.85;46.32;102502.28;6233174;28;20612;-72
2022/08/31 09:09:37;;;;;;;0.30;0.30;;;;;;;20.70;46.61;102502.03;6229096;28;20244;-72
2022/08/31 09:13:13;;;;;;;0.20;0.20;;;;;;;21.08;45.77;102508.94;6237049;28;20233;-72
2022/08/31 09:16:46;;;;;;;0.52;0.52;;;;;;;21.10;44.43;102504.16;6234925;28;20250;-72
2022/08/31 09:20:10;;;;;;;0.32;0.32;;;;;;;21.28;44.50;102509.53;6235044;28;20259;-72
2022/08/31 09:23:37;;;;;;;0.68;0.30;;;;;;;20.98;44.97;102505.44;6231897;28;20236;-72
2022/08/31 09:27:16;;;;;;;0.90;0.52;;;;;;;21.53;44.48;102500.34;6233177;28;20667;-72
2022/08/31 09:30:49;;;;;;;1.85;0.38;;;;;;;21.76;44.03;102504.16;6230209;28;20236;-72
2022/08/31 09:34:27;;;;;;;0.35;0.30;;;;;;;21.87;43.29;102503.00;6237950;28;20229;-74
2022/08/31 09:37:58;;;;;;;0.30;0.30;;;;;;;21.86;43.32;102491.16;6233947;28;20236;-71
2022/08/31 09:41:29;;;;;;;0.30;0.30;;;;;;;22.21;42.71;102496.34;6231722;28;20240;-71
2022/08/31 09:44:54;;;;;;;0.60;0.30;;;;;;;22.25;42.86;102494.09;6230774;28;20326;-72
2022/08/31 09:48:42;;;;;;;0.20;0.20;;;;;;;21.97;42.33;102484.47;6234042;28;20225;-72
2022/08/31 09:55:11;;;;;;;0.55;0.38;;;;;;;22.25;42.33;102497.72;6232301;28;20256;-72
2022/08/31 09:56:19;;;;;;;0.40;0.40;;;;;;;22.04;40.61;102482.78;6229261;28;20236;-72
2022/08/31 09:59:43;;;;;;;0.40;0.30;;;;;;;22.17;39.05;102486.69;6232131;28;20669;-71
2022/08/31 10:03:10;;;;;;;0.30;0.30;;;;;;;22.40;38.65;102480.50;6227188;28;20236;-72
2022/08/31 10:06:43;;;;;;;0.50;0.40;;;;;;;21.61;40.18;102491.28;6233060;28;20244;-71
2022/08/31 10:10:07;;;;;;;0.22;0.20;;;;;;;22.07;39.11;102483.28;6235513;28;20247;-72
2022/08/31 10:13:37;;;;;;;0.40;0.40;;;;;;;22.06;39.20;102484.31;6228995;28;20220;-71
2022/08/31 10:17:04;;;;;;;2.63;2.42;;;;;;;22.58;38.99;102478.41;6232595;28;20251;-71
2022/08/31 10:20:31;;;;;;;0.73;0.63;;;;;;;22.78;38.58;102483.38;6229121;28;20228;-72
2022/08/31 10:24:19;;;;;;;0.77;0.68;;;;;;;23.15;38.08;102479.09;6235622;28;20228;-72
2022/08/31 10:27:47;;;;;;;1.55;0.73;;;;;;;23.41;37.40;102480.53;6229432;28;20516;-72
2022/08/31 10:31:18;;;;;;;0.52;0.45;;;;;;;23.83;37.50;102480.97;6234257;28;20236;-72
2022/08/31 10:38:26;;;;;;;0.50;0.25;;;;;;;23.27;37.14;102480.41;6232610;28;20599;-71
2022/08/31 10:41:49;;;;;;;0.32;0.32;;;;;;;23.84;37.44;102477.16;6230945;28;20589;-72
2022/08/31 10:45:15;;;;;;;0.45;0.45;;;;;;;23.47;38.04;102474.31;6236544;28;20272;-70
2022/08/31 10:48:39;;;;;;;0.98;0.60;;;;;;;23.60;37.88;102470.97;6232820;28;20738;-70
2022/08/31 10:52:10;;;;;;;0.20;0.20;;;;;;;23.53;37.94;102478.25;6233130;28;20520;-70
2022/08/31 10:55:38;;;;;;;0.68;0.52;;;;;;;23.43;37.91;102477.59;6209722;28;20413;-72
2022/08/31 10:59:10;;;;;;;0.25;0.15;;;;;;;23.76;38.49;102468.94;6205515;28;20233;-71
2022/08/31 11:02:51;;;;;;;0.20;0.20;;;;;;;23.49;38.16;102461.22;6214793;28;20220;-71
2022/08/31 11:06:19;;;;;;;0.85;0.40;;;;;;;23.87;38.08;102458.53;6234061;28;20530;-72
2022/08/31 11:09:53;;;;;;;0.30;0.30;;;;;;;24.36;35.78;102454.34;6235646;28;20785;-71
2022/08/31 11:13:27;;;;;;;0.80;0.38;;;;;;;25.37;35.55;102447.94;6234473;28;20232;-71
2022/08/31 11:17:05;;;;;;;0.45;0.45;;;;;;;25.43;34.17;102451.84;6234572;28;20236;-71
2022/08/31 11:20:41;;;;;;;0.30;0.20;;;;;;;25.93;34.20;102440.66;6231970;28;20314;-73
2022/08/31 11:24:20;;;;;;;0.60;0.47;;;;;;;26.43;32.42;102434.09;6233154;28;20232;-72
2022/08/31 11:27:43;;;;;;;0.70;0.63;;;;;;;26.89;31.48;102445.47;6235463;28;20685;-71
2022/08/31 11:31:22;;;;;;;1.48;1.02;;;;;;;26.36;32.20;102452.56;6236844;28;20467;-72
2022/08/31 11:34:50;;;;;;;1.75;1.65;;;;;;;28.36;30.07;102446.28;6239692;28;20256;-72
2022/08/31 11:38:41;;;;;;;0.93;0.80;;;;;;;32.52;24.68;102433.63;6234090;28;20310;-72
2022/08/31 11:42:09;;;;;;;3.58;0.50;;;;;;;33.02;23.36;102438.41;6236398;28;20738;-72
2022/08/31 11:45:33;;;;;;;0.30;0.30;;;;;;;28.61;29.06;102435.38;6229648;28;20248;-71
2022/08/31 11:48:58;;;;;;;0.52;0.40;;;;;;;26.36;32.81;102432.34;6234530;28;20557;-72
2022/08/31 11:52:37;;;;;;;0.40;0.28;;;;;;;32.22;24.28;102414.16;6233978;28;20653;-72
2022/08/31 11:56:01;;;;;;;0.30;0.30;;;;;;;30.15;26.60;102415.53;6231047;28;20339;-72
2022/08/31 11:59:25;;;;;;;0.85;0.30;;;;;;;27.12;31.20;102409.16;6237750;28;20228;-71
2022/08/31 12:02:47;;;;;;;1.33;0.20;;;;;;;29.31;28.52;102408.66;6237462;28;20711;-72
2022/08/31 12:06:09;;;;;;;0.43;0.40;;;;;;;33.34;22.30;102407.16;6237718;28;20236;-72
2022/08/31 12:09:56;;;;;;;0.52;0.40;;;;;;;32.14;24.04;102403.34;6234628;28;20232;-72
2022/08/31 12:13:35;;;;;;;1.35;0.57;;;;;;;28.11;29.80;102405.53;6236985;28;20610;-71
2022/08/31 12:17:08;;;;;;;0.32;0.32;;;;;;;25.85;32.73;102406.78;6236054;28;20240;-71
2022/08/31 12:24:32;;;;;;;0.68;0.43;;;;;;;24.75;33.91;102401.69;6235568;28;20319;-71
2022/08/31 12:28:05;;;;;;;0.90;0.68;;;;;;;24.97;33.37;102401.56;6230007;28;20626;-71
2022/08/31 12:31:26;;;;;;;1.95;0.30;;;;;;;24.66;33.94;102403.66;6225565;28;20236;-71
2022/08/31 12:34:54;;;;;;;1.05;0.68;;;;;;;24.52;34.47;102387.97;6212790;28;20229;-72
2022/08/31 12:38:18;;;;;;;0.30;0.30;;;;;;;29.02;28.08;102383.13;6214818;28;20240;-72
2022/08/31 12:41:46;;;;;;;2.22;0.40;;;;;;;35.60;20.97;102364.97;6210131;28;20308;-72
2022/08/31 12:45:12;;;;;;;0.82;0.60;;;;;;;38.69;17.14;102360.97;6211047;28;21816;-71
2022/08/31 12:48:50;;;;;;;3.08;2.80;;;;;;;39.56;17.00;102365.88;6206437;28;20221;-72
2022/08/31 12:52:23;;;;;;;1.02;0.93;;;;;;;40.41;15.92;102367.94;6229299;28;20332;-71
2022/08/31 12:55:50;;;;;;;0.22;0.22;;;;;;;39.51;16.77;102358.28;6230090;28;20232;-72
2022/08/31 12:59:24;;;;;;;1.45;0.75;;;;;;;36.54;18.68;102371.63;6230609;28;20236;-71
2022/08/31 13:02:50;;;;;;;1.35;0.22;;;;;;;31.21;24.42;102369.56;6226875;28;20229;-71
2022/08/31 13:06:13;;;;;;;0.52;0.40;;;;;;;29.75;26.63;102358.53;6231092;28;20232;-72
2022/08/31 13:09:35;;;;;;;1.20;0.50;;;;;;;30.01;25.82;102366.66;6226191;28;20336;-72
2022/08/31 13:12:59;;;;;;;0.50;0.50;;;;;;;30.95;25.43;102352.38;6235141;28;20240;-72
2022/08/31 13:16:20;;;;;;;0.20;0.20;;;;;;;34.78;20.03;102350.25;6234481;28;20314;-71
2022/08/31 13:19:49;;;;;;;0.20;0.20;;;;;;;29.71;24.49;102357.25;6230930;28;20282;-69
2022/08/31 13:23:13;;;;;;;0.45;0.40;;;;;;;27.64;28.50;102354.72;6233016;28;20633;-71
2022/08/31 13:26:37;;;;;;;1.00;0.43;;;;;;;27.02;29.55;102348.63;6235176;28;20626;-71
2022/08/31 13:30:17;;;;;;;0.30;0.30;;;;;;;26.91;29.92;102340.94;6236044;28;20605;-71
2022/08/31 13:33:40;;;;;;;0.30;0.30;;;;;;;26.28;31.34;102333.78;6231092;28;20610;-71
2022/08/31 13:37:02;;;;;;;0.20;0.20;;;;;;;25.94;32.66;102339.25;6235716;28;20233;-71
2022/08/31 13:40:25;;;;;;;1.77;0.50;;;;;;;25.53;33.10;102330.84;6234771;28;20228;-71
2022/08/31 13:43:57;;;;;;;0.73;0.40;;;;;;;26.72;31.85;102327.88;6231721;28;20236;-71
2022/08/31 13:47:22;;;;;;;0.40;0.40;;;;;;;28.58;28.31;102327.53;6229688;28;20235;-71
2022/08/31 13:50:49;;;;;;;0.38;0.38;;;;;;;32.54;23.44;102314.09;6215015;28;20225;-71
2022/08/31 13:54:14;;;;;;;0.30;0.22;;;;;;;29.65;27.02;102328.44;6203388;28;20658;-71
2022/08/31 13:57:37;;;;;;;3.70;3.40;;;;;;;28.62;27.52;102330.75;6208508;28;20229;-71
2022/08/31 14:01:23;;;;;;;3.15;1.23;;;;;;;26.59;30.35;102336.94;6206794;28;20224;-71
2022/08/31 14:04:59;;;;;;;0.45;0.25;;;;;;;26.14;31.93;102340.28;6209941;28;20224;-71
2022/08/31 14:08:25;;;;;;;0.30;0.30;;;;;;;27.15;30.86;102328.41;6226497;28;20621;-71
2022/08/31 14:11:52;;;;;;;0.85;0.82;;;;;;;27.52;29.91;102337.03;6234466;28;20236;-71
2022/08/31 14:15:34;;;;;;;0.13;0.13;;;;;;;28.32;29.09;102328.47;6236967;28;20236;-71
2022/08/31 14:18:56;;;;;;;0.98;0.98;;;;;;;28.24;28.85;102330.63;6233692;28;20240;-71
2022/08/31 14:22:28;;;;;;;0.38;0.38;;;;;;;29.37;25.94;102325.25;6229014;28;20228;-71
2022/08/31 14:25:50;;;;;;;0.20;0.10;;;;;;;31.93;24.33;102322.97;6209023;28;20229;-71
2022/08/31 14:29:14;;;;;;;0.50;0.35;;;;;;;31.46;23.98;102316.47;6210250;28;20232;-71
2022/08/31 14:32:35;;;;;;;0.77;0.35;;;;;;;29.37;25.38;102316.06;6204224;28;20250;-71
2022/08/31 14:35:57;;;;;;;0.30;0.20;;;;;;;29.43;26.15;102313.22;6203756;28;20233;-71
2022/08/31 14:39:18;;;;;;;0.35;0.20;;;;;;;28.84;27.15;102315.47;6208876;28;20627;-71
2022/08/31 14:42:39;;;;;;;1.38;0.30;;;;;;;29.44;26.22;102298.22;6205541;28;20583;-71
2022/08/31 14:46:02;;;;;;;1.40;0.45;;;;;;;29.31;26.97;102297.50;6211329;28;20228;-71
2022/08/31 14:49:23;;;;;;;0.28;0.20;;;;;;;28.83;26.22;102309.06;6209007;28;20248;-71
2022/08/31 14:52:51;;;;;;;0.47;0.47;;;;;;;28.02;27.74;102298.66;6210837;28;20540;-72
2022/08/31 14:56:25;;;;;;;0.65;0.25;;;;;;;27.03;29.10;102296.88;6234960;28;20531;-71
2022/08/31 14:59:46;;;;;;;1.15;0.20;;;;;;;27.98;27.87;102300.16;6208031;28;20240;-71
2022/08/31 15:03:10;;;;;;;0.47;0.45;;;;;;;26.87;28.02;102298.94;6237548;28;20578;-72
2022/08/31 15:06:32;;;;;;;0.50;0.50;;;;;;;27.53;27.78;102293.56;6238815;28;20228;-72
2022/08/31 15:09:53;;;;;;;0.52;0.20;;;;;;;26.99;28.62;102292.81;6238167;28;20232;-73
2022/08/31 15:13:15;;;;;;;2.00;0.57;;;;;;;28.15;29.00;102290.31;6239583;28;20228;-73
2022/08/31 15:16:36;;;;;;;0.20;0.20;;;;;;;28.73;27.98;102292.03;6238841;28;20598;-68
2022/08/31 15:19:58;;;;;;;0.90;0.88;;;;;;;29.15;27.51;102285.84;6237868;28;20239;-73
2022/08/31 15:23:19;;;;;;;0.63;0.28;;;;;;;28.86;25.95;102278.09;6239286;28;20547;-72
2022/08/31 15:26:42;;;;;;;0.35;0.30;;;;;;;28.51;25.91;102296.16;6238893;28;20612;-72
2022/08/31 15:30:06;;;;;;;0.47;0.40;;;;;;;28.02;26.11;102293.97;6235259;28;20232;-73
2022/08/31 15:33:27;;;;;;;0.20;0.20;;;;;;;27.06;28.45;102296.47;6236586;28;20236;-71
2022/08/31 15:36:54;;;;;;;0.32;0.32;;;;;;;26.43;29.90;102295.75;6235029;28;20236;-72
2022/08/31 15:40:15;;;;;;;0.30;0.30;;;;;;;26.06;31.00;102294.25;6236698;28;20236;-71
2022/08/31 15:43:37;;;;;;;1.38;0.40;;;;;;;25.79;31.74;102297.03;6229392;28;20229;-72
2022/08/31 15:50:36;;;;;;;0.73;0.47;;;;;;;25.38;32.84;102291.38;6231534;28;20236;-71
2022/08/31 15:54:00;;;;;;;0.47;0.40;;;;;;;25.00;33.04;102293.53;6230178;28;20236;-72
2022/08/31 15:57:23;;;;;;;0.57;0.38;;;;;;;24.92;33.40;102295.56;6235551;28;20606;-72
2022/08/31 16:00:43;;;;;;;0.85;0.30;;;;;;;24.85;33.61;102283.59;6226021;28;20229;-72
2022/08/31 16:04:05;;;;;;;1.27;0.40;;;;;;;24.79;34.33;102284.38;6207119;28;20245;-72
2022/08/31 16:07:26;;;;;;;0.40;0.40;;;;;;;24.69;34.34;102283.78;6204219;28;20240;-73
2022/08/31 16:10:49;;;;;;;0.55;0.50;;;;;;;24.56;34.54;102279.84;6203911;28;20229;-73
2022/08/31 16:14:11;;;;;;;0.73;0.50;;;;;;;24.56;34.24;102266.03;6208309;28;20568;-72
2022/08/31 16:17:32;;;;;;;0.70;0.70;;;;;;;24.97;34.08;102279.28;6210168;28;20233;-73
2022/08/31 16:20:54;;;;;;;1.83;0.68;;;;;;;25.42;33.94;102267.84;6208644;28;20221;-72
2022/08/31 16:24:18;;;;;;;0.98;0.30;;;;;;;25.67;33.91;102277.41;6209499;28;20256;-71